createdAt,value
2023-03-21T00:00:42.367Z,21.35
2023-03-21T00:03:09.150Z,20.27
2023-03-21T00:05:43.248Z,19.85
2023-03-21T00:08:09.778Z,20.67
2023-03-21T00:13:22.981Z,21.73
2023-03-21T00:16:05.131Z,22.25
2023-03-21T00:18:46.449Z,23.25
2023-03-21T00:24:02.431Z,22.77
2023-03-21T00:26:29.061Z,22.20
2023-03-21T00:28:55.613Z,21.90
2023-03-21T00:31:22.171Z,19.52
2023-03-21T00:33:48.708Z,24.05
2023-03-21T00:36:15.992Z,18.05
2023-03-21T00:38:43.127Z,19.75
2023-03-21T00:41:21.358Z,18.27
2023-03-21T00:43:55.644Z,23.95
2023-03-21T00:46:25.253Z,18.60
2023-03-21T00:48:52.242Z,23.40
2023-03-21T00:51:26.007Z,21.90
2023-03-21T00:53:57.993Z,22.10
2023-03-21T00:56:24.719Z,16.85
2023-03-21T00:58:51.339Z,21.65
2023-03-21T01:01:18.441Z,22.08
2023-03-21T01:03:50.852Z,20.80
2023-03-21T01:06:19.672Z,20.58
2023-03-21T01:08:53.186Z,21.85
2023-03-21T01:11:26.085Z,20.58
2023-03-21T01:13:57.958Z,21.35
2023-03-21T01:16:28.530Z,22.52
2023-03-21T01:18:56.169Z,21.25
2023-03-21T01:21:23.138Z,20.20
2023-03-21T01:23:49.790Z,22.40
2023-03-21T01:26:16.741Z,21.83
2023-03-21T01:28:44.087Z,21.65
2023-03-21T01:31:13.637Z,19.95
2023-03-21T01:33:41.001Z,21.00
2023-03-21T01:36:13.212Z,21.80
2023-03-21T01:38:41.757Z,20.40
2023-03-21T01:41:20.113Z,21.63
2023-03-21T01:43:47.577Z,22.63
2023-03-21T01:46:51.516Z,20.67
2023-03-21T01:49:27.640Z,20.08
2023-03-21T01:52:11.533Z,24.13
2023-03-21T01:54:41.211Z,22.83
2023-03-21T01:57:22.539Z,20.92
2023-03-21T01:59:54.288Z,23.83
2023-03-21T02:02:27.136Z,22.33
2023-03-21T02:04:58.157Z,23.70
2023-03-21T02:07:32.025Z,22.67
2023-03-21T02:09:59.439Z,21.50
2023-03-21T02:12:27.560Z,19.58
2023-03-21T02:14:55.660Z,23.33
2023-03-21T02:17:48.454Z,21.55
2023-03-21T02:20:36.603Z,18.80
2023-03-21T02:23:18.014Z,19.73
2023-03-21T02:26:03.330Z,18.27
2023-03-21T02:28:53.549Z,18.90
2023-03-21T02:31:45.835Z,17.98
2023-03-21T02:34:32.635Z,16.17
2023-03-21T02:37:28.968Z,18.20
2023-03-21T02:40:30.859Z,18.65
2023-03-21T02:43:35.314Z,19.50
2023-03-21T02:46:10.636Z,17.88
2023-03-21T02:48:51.972Z,18.95
2023-03-21T02:51:22.844Z,16.13
2023-03-21T02:54:27.873Z,19.00
2023-03-21T02:56:52.742Z,15.40
2023-03-21T02:59:22.873Z,18.85
2023-03-21T03:01:52.236Z,20.85
2023-03-21T03:04:27.401Z,18.50
2023-03-21T03:07:18.092Z,18.75
2023-03-21T03:09:57.386Z,19.75
2023-03-21T03:12:48.012Z,19.58
2023-03-21T03:16:01.214Z,17.60
2023-03-21T03:18:39.893Z,19.13
2023-03-21T03:21:15.653Z,17.67
2023-03-21T03:23:42.236Z,15.48
2023-03-21T03:26:15.699Z,17.65
2023-03-21T03:28:48.471Z,19.00
2023-03-21T03:31:21.850Z,16.42
2023-03-21T03:33:52.225Z,20.08
2023-03-21T03:36:31.622Z,19.77
2023-03-21T03:39:01.080Z,18.60
2023-03-21T03:41:29.965Z,17.98
2023-03-21T03:44:01.332Z,17.52
2023-03-21T03:46:36.128Z,17.98
2023-03-21T03:49:12.041Z,14.52
2023-03-21T03:51:53.065Z,13.48
2023-03-21T03:54:24.576Z,13.10
2023-03-21T03:56:51.505Z,14.82
2023-03-21T03:59:25.181Z,14.48
2023-03-21T04:01:52.137Z,14.95
2023-03-21T04:04:18.800Z,15.88
2023-03-21T04:06:51.562Z,16.05
2023-03-21T04:09:22.106Z,15.90
2023-03-21T04:11:51.786Z,15.18
2023-03-21T04:14:18.427Z,15.98
2023-03-21T04:16:45.051Z,16.08
2023-03-21T04:19:11.627Z,16.08
2023-03-21T04:21:38.800Z,15.65
2023-03-21T04:24:07.385Z,14.25
2023-03-21T04:26:35.886Z,14.75
2023-03-21T04:29:03.431Z,14.55
2023-03-21T04:31:31.431Z,14.25
2023-03-21T04:33:59.605Z,14.68
2023-03-21T04:36:30.786Z,13.88
2023-03-21T04:39:01.609Z,14.55
2023-03-21T04:41:28.765Z,12.32
2023-03-21T04:43:56.555Z,12.43
2023-03-21T04:46:23.977Z,11.32
2023-03-21T04:48:50.710Z,12.35
2023-03-21T04:51:17.301Z,13.50
2023-03-21T04:53:45.902Z,13.13
2023-03-21T04:56:13.098Z,13.73
2023-03-21T04:58:40.717Z,14.13
2023-03-21T05:01:08.116Z,13.38
2023-03-21T05:03:39.990Z,15.48
2023-03-21T05:06:09.968Z,15.23
2023-03-21T05:08:37.234Z,14.48
2023-03-21T05:11:04.392Z,13.95
2023-03-21T05:13:31.040Z,15.90
2023-03-21T05:15:57.600Z,15.07
2023-03-21T05:18:27.215Z,14.60
2023-03-21T05:20:54.246Z,14.52
2023-03-21T05:23:24.495Z,15.40
2023-03-21T05:25:51.543Z,16.20
2023-03-21T05:28:20.849Z,15.63
2023-03-21T05:30:47.566Z,14.60
2023-03-21T05:33:14.335Z,15.05
2023-03-21T05:35:41.175Z,14.65
2023-03-21T05:38:08.175Z,15.35
2023-03-21T05:40:34.782Z,15.82
2023-03-21T05:43:01.438Z,15.18
2023-03-21T05:45:28.054Z,15.23
2023-03-21T05:47:54.692Z,16.73
2023-03-21T05:50:21.259Z,15.98
2023-03-21T05:52:47.815Z,15.05
2023-03-21T05:55:14.533Z,17.85
2023-03-21T05:57:41.140Z,14.20
2023-03-21T06:00:09.229Z,16.30
2023-03-21T06:02:35.963Z,16.30
2023-03-21T06:05:02.548Z,17.65
2023-03-21T06:07:29.220Z,17.48
2023-03-21T06:09:55.817Z,16.58
2023-03-21T06:12:22.421Z,16.45
2023-03-21T06:14:48.984Z,16.10
2023-03-21T06:17:15.923Z,16.08
2023-03-21T06:19:42.645Z,15.40
2023-03-21T06:22:09.309Z,14.70
2023-03-21T06:24:35.982Z,14.85
2023-03-21T06:27:04.082Z,15.13
2023-03-21T06:29:31.314Z,15.30
2023-03-21T06:31:58.041Z,14.55
2023-03-21T06:34:24.652Z,14.50
2023-03-21T06:36:52.198Z,13.13
2023-03-21T06:39:18.850Z,14.88
2023-03-21T06:41:45.489Z,14.20
2023-03-21T06:44:12.164Z,15.32
2023-03-21T06:46:38.827Z,16.08
2023-03-21T06:49:05.575Z,17.05
2023-03-21T06:51:32.243Z,16.33
2023-03-21T06:53:58.845Z,17.25
2023-03-21T06:56:25.430Z,17.70
2023-03-21T06:58:52.019Z,18.70
2023-03-21T07:01:18.751Z,17.15
2023-03-21T07:03:45.407Z,16.83
2023-03-21T07:06:13.445Z,16.13
2023-03-21T07:08:41.530Z,15.32
2023-03-21T07:11:09.186Z,16.38
2023-03-21T07:13:36.095Z,15.35
2023-03-21T07:16:02.888Z,16.88
2023-03-21T07:18:30.919Z,17.20
2023-03-21T07:20:57.659Z,17.60
2023-03-21T07:23:25.894Z,17.08
2023-03-21T07:25:53.407Z,18.23
2023-03-21T07:28:21.433Z,17.08
2023-03-21T07:30:56.951Z,17.70
2023-03-21T07:33:24.777Z,18.40
2023-03-21T07:35:53.073Z,16.33
2023-03-21T07:38:20.445Z,17.85
2023-03-21T07:40:48.408Z,17.73
2023-03-21T07:43:16.073Z,17.35
2023-03-21T07:45:43.769Z,17.50
2023-03-21T07:48:13.026Z,17.00
2023-03-21T07:50:40.955Z,18.77
2023-03-21T07:53:08.170Z,17.20
2023-03-21T07:55:35.495Z,17.30
2023-03-21T07:58:03.634Z,17.52
2023-03-21T08:00:30.420Z,18.05
2023-03-21T08:02:58.981Z,16.77
2023-03-21T08:05:33.325Z,15.98
2023-03-21T08:08:00.698Z,16.92
2023-03-21T08:10:28.219Z,17.55
2023-03-21T08:12:55.082Z,18.88
2023-03-21T08:15:21.908Z,19.00
2023-03-21T08:17:48.497Z,18.65
2023-03-21T08:20:18.078Z,20.33
2023-03-21T08:22:45.158Z,21.80
2023-03-21T08:25:13.998Z,20.92
2023-03-21T08:27:42.400Z,19.65
2023-03-21T08:30:14.497Z,19.85
2023-03-21T08:32:42.242Z,23.75
2023-03-21T08:35:11.413Z,21.07
2023-03-21T08:37:38.816Z,20.13
2023-03-21T08:40:09.100Z,20.95
2023-03-21T08:42:35.710Z,21.77
2023-03-21T08:45:02.463Z,20.42
2023-03-21T08:47:29.046Z,20.52
2023-03-21T08:49:58.631Z,18.52
2023-03-21T08:52:27.174Z,20.00
2023-03-21T08:54:54.726Z,21.23
2023-03-21T08:57:21.622Z,20.90
2023-03-21T08:59:48.277Z,20.60
2023-03-21T09:02:16.334Z,19.40
2023-03-21T09:04:43.933Z,22.08
2023-03-21T09:07:12.557Z,25.42
2023-03-21T09:09:39.470Z,23.40
2023-03-21T09:12:06.202Z,21.73
2023-03-21T09:14:34.664Z,21.27
2023-03-21T09:17:01.228Z,23.75
2023-03-21T09:19:28.316Z,22.33
2023-03-21T09:21:55.793Z,20.40
2023-03-21T09:24:22.878Z,21.43
2023-03-21T09:26:52.649Z,22.58
2023-03-21T09:29:20.997Z,20.92
2023-03-21T09:31:48.338Z,21.95
2023-03-21T09:34:15.675Z,22.60
2023-03-21T09:36:44.163Z,22.38
2023-03-21T09:39:12.000Z,19.33
2023-03-21T09:42:00.052Z,22.33
2023-03-21T09:47:14.041Z,22.85
2023-03-21T09:49:49.147Z,23.90
2023-03-21T09:52:27.119Z,23.40
2023-03-21T09:54:55.610Z,25.20
2023-03-21T09:57:36.904Z,24.70
2023-03-21T10:00:14.525Z,23.73
2023-03-21T10:02:48.047Z,24.67
2023-03-21T10:05:26.087Z,25.70
2023-03-21T10:08:09.222Z,26.10
2023-03-21T10:10:43.758Z,27.08
2023-03-21T10:13:35.486Z,26.38
2023-03-21T10:16:14.155Z,24.42
2023-03-21T10:18:42.630Z,27.35
2023-03-21T10:21:37.347Z,27.05
2023-03-21T10:24:04.852Z,26.88
2023-03-21T10:26:31.548Z,26.48
2023-03-21T10:29:02.040Z,24.45
2023-03-21T10:31:30.155Z,25.83
2023-03-21T10:34:02.573Z,26.63
2023-03-21T10:36:32.066Z,28.20
2023-03-21T10:38:58.685Z,27.88
2023-03-21T10:41:25.518Z,27.92
2023-03-21T10:44:16.621Z,29.27
2023-03-21T10:46:58.248Z,25.00
2023-03-21T10:49:26.760Z,26.83
2023-03-21T10:54:31.297Z,28.27
2023-03-21T10:57:05.016Z,27.42
2023-03-21T11:00:15.779Z,26.30
2023-03-21T11:02:43.208Z,27.25
2023-03-21T11:05:36.832Z,26.83
2023-03-21T11:08:06.897Z,26.92
2023-03-21T11:10:38.125Z,27.98
2023-03-21T11:13:38.638Z,26.38
2023-03-21T11:16:23.647Z,27.75
2023-03-21T11:18:52.254Z,30.67
2023-03-21T11:21:19.125Z,29.08
2023-03-21T11:23:49.454Z,27.38
2023-03-21T11:26:36.672Z,28.50
2023-03-21T11:29:22.692Z,28.88
2023-03-21T11:31:49.272Z,28.50
2023-03-21T11:34:41.622Z,24.15
2023-03-21T11:37:19.473Z,22.27
2023-03-21T11:39:46.364Z,25.08
2023-03-21T11:42:40.694Z,25.92
2023-03-21T11:45:21.661Z,20.10
2023-03-21T11:47:50.585Z,19.77
2023-03-21T11:50:19.247Z,21.40
2023-03-21T11:53:10.655Z,21.70
2023-03-21T11:55:43.505Z,17.90
2023-03-21T11:58:28.459Z,14.10
2023-03-21T12:01:21.082Z,15.93
2023-03-21T12:04:09.714Z,12.95
2023-03-21T12:06:36.782Z,15.43
2023-03-21T12:09:13.168Z,18.63
2023-03-21T12:11:57.754Z,16.88
2023-03-21T12:14:24.290Z,18.48
2023-03-21T12:17:10.721Z,19.02
2023-03-21T12:19:53.381Z,18.60
2023-03-21T12:22:26.148Z,20.30
2023-03-21T12:24:58.911Z,17.15
2023-03-21T12:27:31.181Z,17.58
2023-03-21T12:30:17.029Z,16.73
2023-03-21T12:33:22.837Z,15.82
2023-03-21T12:36:05.556Z,15.43
2023-03-21T12:38:54.960Z,15.50
2023-03-21T12:41:40.500Z,13.05
2023-03-21T12:44:17.702Z,11.25
2023-03-21T12:46:59.424Z,13.13
2023-03-21T12:49:28.702Z,11.90
2023-03-21T12:52:01.786Z,11.38
2023-03-21T12:54:54.480Z,12.18
2023-03-21T12:57:56.351Z,13.00
2023-03-21T13:00:34.168Z,13.13
2023-03-21T13:03:06.585Z,11.32
2023-03-21T13:05:35.752Z,12.43
2023-03-21T13:08:08.116Z,10.80
2023-03-21T13:10:34.704Z,14.65
2023-03-21T13:13:17.605Z,16.58
2023-03-21T13:15:52.684Z,16.73
2023-03-21T13:18:43.386Z,17.35
2023-03-21T13:21:19.624Z,19.80
2023-03-21T13:24:01.371Z,15.93
2023-03-21T13:26:52.204Z,17.65
2023-03-21T13:29:46.356Z,20.02
2023-03-21T13:32:19.982Z,17.95
2023-03-21T13:34:55.399Z,18.08
2023-03-21T13:37:25.249Z,16.83
2023-03-21T13:39:52.185Z,16.98
2023-03-21T13:42:32.308Z,16.48
2023-03-21T13:45:06.067Z,18.55
2023-03-21T13:47:40.854Z,17.30
2023-03-21T13:50:28.168Z,17.30
2023-03-21T13:53:03.961Z,17.13
2023-03-21T13:55:36.642Z,18.60
2023-03-21T13:58:24.937Z,17.73
2023-03-21T14:01:23.676Z,17.85
2023-03-21T14:03:50.774Z,17.23
2023-03-21T14:06:19.054Z,17.27
2023-03-21T14:08:48.988Z,16.00
2023-03-21T14:11:20.040Z,17.02
2023-03-21T14:13:51.375Z,16.77
2023-03-21T14:16:20.412Z,17.10
2023-03-21T14:18:57.438Z,16.00
2023-03-21T14:21:27.105Z,17.33
2023-03-21T14:24:05.577Z,16.20
2023-03-21T14:26:36.095Z,15.52
2023-03-21T14:29:09.698Z,17.02
2023-03-21T14:31:42.349Z,16.67
2023-03-21T14:34:10.506Z,15.88
2023-03-21T14:36:43.209Z,18.08
2023-03-21T14:39:20.312Z,17.27
2023-03-21T14:41:50.388Z,16.42
2023-03-21T14:44:26.562Z,15.73
2023-03-21T14:47:17.787Z,17.05
2023-03-21T14:49:45.364Z,15.68
2023-03-21T14:52:16.172Z,17.17
2023-03-21T14:54:45.298Z,15.30
2023-03-21T14:57:15.450Z,15.32
2023-03-21T14:59:42.645Z,15.00
2023-03-21T15:02:19.376Z,16.85
2023-03-21T15:04:50.605Z,16.00
2023-03-21T15:07:28.997Z,15.50
2023-03-21T15:12:24.099Z,14.00
2023-03-21T15:14:51.053Z,15.55
2023-03-21T15:17:18.127Z,14.90
2023-03-21T15:19:44.810Z,14.77
2023-03-21T15:22:29.369Z,15.82
2023-03-21T15:25:00.646Z,14.63
2023-03-21T15:27:29.681Z,14.93
2023-03-21T15:29:56.900Z,15.75
2023-03-21T15:32:27.526Z,14.90
2023-03-21T15:34:56.613Z,13.63
2023-03-21T15:37:28.594Z,15.38
2023-03-21T15:40:28.805Z,15.48
2023-03-21T15:43:15.959Z,14.65
2023-03-21T15:45:54.750Z,12.30
2023-03-21T15:48:25.371Z,13.95
2023-03-21T15:51:06.193Z,12.70
2023-03-21T15:53:35.473Z,14.13
2023-03-21T15:56:05.945Z,14.15
2023-03-21T15:58:42.902Z,13.65
2023-03-21T16:01:20.916Z,15.13
2023-03-21T16:03:55.049Z,15.13
2023-03-21T16:06:35.687Z,14.40
2023-03-21T16:09:08.680Z,13.90
2023-03-21T16:11:43.926Z,13.30
2023-03-21T16:14:10.765Z,13.98
2023-03-21T16:16:38.384Z,13.85
2023-03-21T16:19:07.215Z,14.90
2023-03-21T16:21:35.329Z,13.70
2023-03-21T16:24:02.326Z,13.55
2023-03-21T16:26:32.696Z,15.23
2023-03-21T16:29:00.226Z,13.77
2023-03-21T16:31:30.014Z,14.88
2023-03-21T16:33:56.962Z,14.70
2023-03-21T16:36:27.296Z,13.65
2023-03-21T16:38:55.095Z,11.38
2023-03-21T16:41:23.812Z,13.13
2023-03-21T16:46:19.613Z,12.68
2023-03-21T16:48:50.034Z,14.23
2023-03-21T16:53:49.321Z,11.43
2023-03-21T16:56:20.331Z,12.55
2023-03-21T16:58:47.474Z,12.68
2023-03-21T17:01:15.715Z,13.77
2023-03-21T17:03:42.999Z,12.77
2023-03-21T17:06:18.121Z,15.23
2023-03-21T17:08:44.835Z,12.82
2023-03-21T17:11:13.647Z,12.88
2023-03-21T17:13:40.199Z,13.57
2023-03-21T17:16:07.207Z,12.95
2023-03-21T17:18:33.747Z,16.25
2023-03-21T17:21:00.633Z,14.85
2023-03-21T17:23:27.291Z,13.68
2023-03-21T17:25:54.943Z,14.43
2023-03-21T17:28:21.530Z,12.18
2023-03-21T17:30:48.151Z,14.27
2023-03-21T17:33:15.410Z,12.48
2023-03-21T17:35:42.110Z,15.98
2023-03-21T17:38:15.560Z,13.52
2023-03-21T17:40:42.460Z,16.25
2023-03-21T17:43:16.993Z,15.35
2023-03-21T17:45:43.621Z,14.60
2023-03-21T17:48:10.371Z,16.50
2023-03-21T17:50:39.349Z,16.08
2023-03-21T17:53:07.411Z,14.95
2023-03-21T17:55:35.201Z,13.33
2023-03-21T17:58:02.390Z,15.23
2023-03-21T18:00:30.690Z,12.65
2023-03-21T18:02:57.278Z,18.23
2023-03-21T18:05:25.348Z,13.52
2023-03-21T18:10:40.655Z,15.05
2023-03-21T18:13:08.016Z,14.32
2023-03-21T18:15:35.943Z,16.45
2023-03-21T18:18:04.615Z,18.50
2023-03-21T18:23:19.102Z,19.65
2023-03-21T18:25:45.921Z,15.55
2023-03-21T18:28:13.203Z,16.85
2023-03-21T18:31:07.062Z,19.10
2023-03-21T18:33:28.694Z,17.17
2023-03-21T18:35:59.658Z,17.75
2023-03-21T18:38:27.820Z,16.15
2023-03-21T18:40:55.582Z,19.63
2023-03-21T18:46:09.475Z,18.10
2023-03-21T18:48:39.360Z,17.90
2023-03-21T18:51:06.164Z,17.60
2023-03-21T18:53:32.719Z,16.02
2023-03-21T18:55:59.322Z,17.70
2023-03-21T18:58:28.092Z,17.30
2023-03-21T19:03:35.430Z,16.13
2023-03-21T19:06:04.952Z,18.25
2023-03-21T19:08:32.432Z,14.27
2023-03-21T19:11:03.718Z,20.30
2023-03-21T19:13:33.394Z,19.38
2023-03-21T19:16:02.500Z,20.52
2023-03-21T19:18:50.365Z,16.63
2023-03-21T19:21:17.100Z,18.13
2023-03-21T19:24:20.832Z,19.75
2023-03-21T19:26:30.897Z,18.58
2023-03-21T19:28:57.639Z,17.90
2023-03-21T19:31:24.690Z,18.00
2023-03-21T19:33:51.583Z,18.45
2023-03-21T19:36:22.542Z,21.48
2023-03-21T19:38:50.521Z,21.00
2023-03-21T19:41:18.688Z,20.13
2023-03-21T19:43:54.044Z,22.70
2023-03-21T19:46:25.129Z,20.73
2023-03-21T19:48:56.443Z,19.45
2023-03-21T19:51:29.184Z,16.75
2023-03-21T19:53:56.529Z,19.52
2023-03-21T19:56:26.759Z,20.90
2023-03-21T19:58:54.943Z,23.10
2023-03-21T20:01:22.283Z,22.65
2023-03-21T20:03:48.956Z,19.85
2023-03-21T20:06:16.255Z,19.95
2023-03-21T20:09:13.584Z,18.73
2023-03-21T20:11:29.399Z,19.77
2023-03-21T20:13:56.356Z,18.77
2023-03-21T20:16:23.121Z,20.17
2023-03-21T20:18:49.824Z,19.02
2023-03-21T20:21:18.480Z,19.23
2023-03-21T20:23:50.970Z,19.10
2023-03-21T20:26:18.431Z,18.85
2023-03-21T20:28:59.759Z,20.38
2023-03-21T20:31:34.299Z,18.92
2023-03-21T20:34:01.055Z,20.27
2023-03-21T20:36:43.736Z,18.27
2023-03-21T20:39:11.141Z,19.90
2023-03-21T20:41:38.179Z,19.13
2023-03-21T20:46:51.968Z,18.75
2023-03-21T20:49:20.981Z,22.60
2023-03-21T20:54:35.134Z,22.90
2023-03-21T20:57:02.567Z,22.52
2023-03-21T20:59:29.657Z,21.67
2023-03-21T21:01:57.399Z,21.17
2023-03-21T21:04:46.920Z,19.30
2023-03-21T21:07:16.060Z,19.42
2023-03-21T21:09:46.777Z,22.77
2023-03-21T21:12:15.211Z,18.40
2023-03-21T21:14:42.746Z,19.80
2023-03-21T21:17:24.557Z,16.92
2023-03-21T21:19:56.875Z,18.88
2023-03-21T21:22:23.717Z,19.92
2023-03-21T21:24:50.311Z,19.70
2023-03-21T21:27:16.978Z,18.83
2023-03-21T21:29:45.052Z,18.95
2023-03-21T21:32:11.585Z,18.77
2023-03-21T21:34:38.399Z,20.25
2023-03-21T21:37:05.229Z,18.58
2023-03-21T21:39:35.276Z,18.77
2023-03-21T21:42:02.622Z,18.38
2023-03-21T21:44:29.475Z,17.17
2023-03-21T21:46:57.491Z,18.80
2023-03-21T21:49:24.157Z,17.13
2023-03-21T21:51:50.830Z,20.08
2023-03-21T21:54:18.224Z,20.42
2023-03-21T21:56:48.379Z,19.90
2023-03-21T21:59:18.638Z,18.58
2023-03-21T22:01:48.497Z,19.40
2023-03-21T22:04:15.465Z,18.83
2023-03-21T22:06:43.270Z,19.15
2023-03-21T22:09:10.615Z,19.23
2023-03-21T22:11:37.277Z,20.08
2023-03-21T22:14:05.174Z,18.70
2023-03-21T22:16:31.777Z,20.75
2023-03-21T22:18:58.389Z,21.40
2023-03-21T22:21:25.328Z,23.05
2023-03-21T22:23:51.964Z,23.05
2023-03-21T22:26:18.553Z,22.58
2023-03-21T22:28:45.498Z,19.02
2023-03-21T22:31:16.704Z,17.27
2023-03-21T22:33:44.304Z,19.00
2023-03-21T22:36:11.337Z,18.35
2023-03-21T22:38:38.581Z,20.63
2023-03-21T22:41:06.548Z,19.25
2023-03-21T22:43:34.424Z,20.33
2023-03-21T22:46:05.582Z,19.98
2023-03-21T22:48:32.782Z,19.15
2023-03-21T22:51:00.331Z,19.88
2023-03-21T22:53:26.939Z,20.15
2023-03-21T22:55:53.797Z,17.45
2023-03-21T22:58:21.806Z,18.33
2023-03-21T23:00:48.641Z,17.57
2023-03-21T23:03:16.861Z,18.02
2023-03-21T23:05:44.844Z,18.05
2023-03-21T23:08:12.894Z,19.05
2023-03-21T23:10:41.477Z,18.40
2023-03-21T23:15:34.933Z,17.35
2023-03-21T23:18:01.486Z,17.90
2023-03-21T23:20:28.208Z,20.35
2023-03-21T23:22:55.216Z,17.13
2023-03-21T23:25:21.942Z,17.70
2023-03-21T23:27:48.749Z,17.77
2023-03-21T23:30:15.685Z,18.00
2023-03-21T23:32:42.680Z,17.95
2023-03-21T23:35:09.634Z,18.30
2023-03-21T23:37:36.516Z,17.65
2023-03-21T23:40:06.176Z,18.98
2023-03-21T23:42:34.223Z,18.13
2023-03-21T23:45:00.997Z,18.67
2023-03-21T23:47:28.783Z,17.48
2023-03-21T23:49:55.412Z,18.25
2023-03-21T23:52:22.096Z,17.42
2023-03-21T23:54:48.701Z,18.02
2023-03-21T23:57:17.259Z,17.70
2023-03-21T23:59:46.592Z,17.08
